IBE9925 EGLL-LEMD
Flight info
| Callsign | IBE9925 |
|---|---|
| Flight time | N/A |
| Altitude | 38000 |
| Route | GASGU2J GASGU N866 SAM M195 MARUK N621 LELNA DCT NOVAN DCT DELOG N864 NONTU NONTU4C |
| Aircraft | A20N/L-V/N |
Departure
| Time | 2026-05-07 19:47 |
|---|---|
| Airport | London Heathrow Airport (EGLL) |
Arrival
| Time | N/A |
|---|---|
| Airport | Adolfo Suárez Madrid–Barajas Airport (LEMD) |
| Time | Latitude | Longitude | Altitude | Speed | Heading |
|---|---|---|---|---|---|
| 2026-05-07 19:17 | 51.46844 | -0.44881 | 89 ft | 0 kts | 359° |
| 2026-05-07 19:33 | 51.46839 | -0.44881 | 89 ft | 2 kts | 359° |
| 2026-05-07 19:33 | 51.46822 | -0.44881 | 90 ft | 2 kts | 360° |
| 2026-05-07 19:34 | 51.46806 | -0.44881 | 90 ft | 2 kts | 1° |
| 2026-05-07 19:34 | 51.46790 | -0.44882 | 91 ft | 2 kts | 1° |
| 2026-05-07 19:34 | 51.46775 | -0.44875 | 92 ft | 2 kts | 320° |
| 2026-05-07 19:34 | 51.46764 | -0.44856 | 91 ft | 2 kts | 304° |
| 2026-05-07 19:35 | 51.46756 | -0.44833 | 93 ft | 2 kts | 290° |
| 2026-05-07 19:35 | 51.46753 | -0.44820 | 93 ft | 0 kts | 273° |
| 2026-05-07 19:37 | 51.46753 | -0.44841 | 93 ft | 5 kts | 271° |
| 2026-05-07 19:37 | 51.46752 | -0.44951 | 92 ft | 15 kts | 269° |
| 2026-05-07 19:38 | 51.46752 | -0.45153 | 90 ft | 22 kts | 269° |
| 2026-05-07 19:38 | 51.46749 | -0.45429 | 88 ft | 29 kts | 269° |
| 2026-05-07 19:38 | 51.46749 | -0.45669 | 86 ft | 14 kts | 269° |
| 2026-05-07 19:38 | 51.46746 | -0.45853 | 91 ft | 20 kts | 269° |
| 2026-05-07 19:39 | 51.46746 | -0.46112 | 90 ft | 25 kts | 267° |
| 2026-05-07 19:39 | 51.46748 | -0.46412 | 92 ft | 29 kts | 270° |
| 2026-05-07 19:39 | 51.46746 | -0.46765 | 93 ft | 33 kts | 270° |
| 2026-05-07 19:39 | 51.46746 | -0.47167 | 88 ft | 38 kts | 269° |
| 2026-05-07 19:40 | 51.46745 | -0.47256 | 88 ft | 0 kts | 270° |
| 2026-05-07 19:40 | 51.46745 | -0.47302 | 87 ft | 9 kts | 270° |
| 2026-05-07 19:40 | 51.46746 | -0.47455 | 85 ft | 19 kts | 270° |
| 2026-05-07 19:40 | 51.46745 | -0.47702 | 87 ft | 24 kts | 270° |
| 2026-05-07 19:41 | 51.46743 | -0.47995 | 89 ft | 28 kts | 269° |
| 2026-05-07 19:41 | 51.46743 | -0.48039 | 89 ft | 0 kts | 270° |
| 2026-05-07 19:43 | 51.46743 | -0.48046 | 89 ft | 3 kts | 270° |
| 2026-05-07 19:43 | 51.46743 | -0.48073 | 89 ft | 1 kts | 271° |
| 2026-05-07 19:44 | 51.46742 | -0.48115 | 90 ft | 4 kts | 270° |
| 2026-05-07 19:44 | 51.46742 | -0.48129 | 91 ft | 4 kts | 270° |
| 2026-05-07 19:44 | 51.46743 | -0.48203 | 92 ft | 9 kts | 272° |
| 2026-05-07 19:44 | 51.46744 | -0.48338 | 94 ft | 16 kts | 270° |
| 2026-05-07 19:45 | 51.46702 | -0.48471 | 95 ft | 9 kts | 186° |
| 2026-05-07 19:45 | 51.46625 | -0.48468 | 95 ft | 13 kts | 179° |
| 2026-05-07 19:45 | 51.46599 | -0.48467 | 95 ft | 0 kts | 180° |
| 2026-05-07 19:45 | 51.46577 | -0.48467 | 95 ft | 7 kts | 180° |
| 2026-05-07 19:46 | 51.46506 | -0.48454 | 94 ft | 14 kts | 153° |
| 2026-05-07 19:46 | 51.46479 | -0.48327 | 95 ft | 0 kts | 89° |
| 2026-05-07 19:46 | 51.46479 | -0.48253 | 94 ft | 31 kts | 89° |
| 2026-05-07 19:47 | 51.46482 | -0.47507 | 87 ft | 98 kts | 90° |
| 2026-05-07 19:47 | 51.46481 | -0.46140 | 91 ft | 146 kts | 91° |
| 2026-05-07 19:47 | 51.46499 | -0.44411 | 390 ft | 160 kts | 91° |
| 2026-05-07 19:47 | 51.46519 | -0.42539 | 776 ft | 175 kts | 91° |
| 2026-05-07 19:48 | 51.46323 | -0.40681 | 1456 ft | 167 kts | 116° |
| 2026-05-07 19:48 | 51.45733 | -0.39115 | 2145 ft | 168 kts | 127° |
| 2026-05-07 19:48 | 51.44975 | -0.37560 | 2617 ft | 186 kts | 129° |
| 2026-05-07 19:48 | 51.44130 | -0.35840 | 3100 ft | 207 kts | 127° |
| 2026-05-07 19:49 | 51.43095 | -0.34075 | 3599 ft | 231 kts | 147° |
| 2026-05-07 19:49 | 51.41507 | -0.33194 | 4207 ft | 254 kts | 172° |
| 2026-05-07 19:49 | 51.39731 | -0.33395 | 5021 ft | 266 kts | 193° |
| 2026-05-07 19:49 | 51.37985 | -0.34512 | 5212 ft | 270 kts | 210° |
| 2026-05-07 19:50 | 51.36448 | -0.36212 | 5327 ft | 270 kts | 218° |
| 2026-05-07 19:50 | 51.35013 | -0.38179 | 5729 ft | 274 kts | 222° |
| 2026-05-07 19:50 | 51.33611 | -0.40229 | 6854 ft | 269 kts | 223° |
| 2026-05-07 19:50 | 51.32230 | -0.42252 | 7922 ft | 271 kts | 223° |
| 2026-05-07 19:51 | 51.30933 | -0.44445 | 8922 ft | 272 kts | 236° |
| 2026-05-07 19:51 | 51.30045 | -0.47103 | 9979 ft | 271 kts | 251° |
| 2026-05-07 19:51 | 51.29486 | -0.50042 | 10629 ft | 286 kts | 253° |
| 2026-05-07 19:51 | 51.28903 | -0.53180 | 10939 ft | 310 kts | 253° |
| 2026-05-07 19:52 | 51.28262 | -0.56588 | 11408 ft | 326 kts | 253° |
| 2026-05-07 19:52 | 51.27599 | -0.60084 | 12209 ft | 331 kts | 252° |
| 2026-05-07 19:52 | 51.26921 | -0.63639 | 13018 ft | 337 kts | 252° |
| 2026-05-07 19:52 | 51.26227 | -0.67267 | 13489 ft | 343 kts | 252° |
| 2026-05-07 19:53 | 51.25529 | -0.70903 | 13612 ft | 342 kts | 252° |
| 2026-05-07 19:53 | 51.24811 | -0.74528 | 13727 ft | 343 kts | 251° |
| 2026-05-07 19:53 | 51.24072 | -0.78113 | 13844 ft | 344 kts | 251° |
| 2026-05-07 19:53 | 51.23314 | -0.81787 | 13955 ft | 344 kts | 251° |
| 2026-05-07 19:54 | 51.22565 | -0.85418 | 14046 ft | 345 kts | 251° |
| 2026-05-07 19:54 | 51.21819 | -0.89024 | 14331 ft | 349 kts | 251° |
| 2026-05-07 19:54 | 51.21058 | -0.92700 | 15177 ft | 348 kts | 251° |
| 2026-05-07 19:54 | 51.20287 | -0.96397 | 15978 ft | 351 kts | 251° |
| 2026-05-07 19:55 | 51.19511 | -1.00108 | 16719 ft | 354 kts | 251° |
| 2026-05-07 19:55 | 51.18734 | -1.03801 | 17443 ft | 358 kts | 251° |
| 2026-05-07 19:55 | 51.17935 | -1.07586 | 18176 ft | 361 kts | 251° |
| 2026-05-07 19:55 | 51.17127 | -1.11397 | 18823 ft | 364 kts | 250° |
| 2026-05-07 19:56 | 51.16311 | -1.15249 | 19452 ft | 367 kts | 250° |
| 2026-05-07 19:56 | 51.15491 | -1.19131 | 20080 ft | 371 kts | 250° |
| 2026-05-07 19:56 | 51.14675 | -1.23000 | 20692 ft | 374 kts | 250° |
| 2026-05-07 19:56 | 51.13845 | -1.26945 | 21304 ft | 377 kts | 250° |
| 2026-05-07 19:57 | 51.13009 | -1.30924 | 21901 ft | 380 kts | 250° |
| 2026-05-07 19:57 | 51.12164 | -1.34955 | 22511 ft | 384 kts | 250° |
| 2026-05-07 19:57 | 51.11316 | -1.39004 | 23097 ft | 387 kts | 250° |
| 2026-05-07 19:57 | 51.10464 | -1.43079 | 23682 ft | 391 kts | 250° |
| 2026-05-07 19:58 | 51.09607 | -1.47203 | 24164 ft | 394 kts | 250° |
| 2026-05-07 19:58 | 51.08742 | -1.51364 | 24683 ft | 396 kts | 250° |
| 2026-05-07 19:58 | 51.07884 | -1.55489 | 25165 ft | 399 kts | 250° |
| 2026-05-07 19:58 | 51.07008 | -1.59695 | 25645 ft | 401 kts | 250° |
| 2026-05-07 19:59 | 51.06126 | -1.63930 | 26123 ft | 404 kts | 250° |
| 2026-05-07 19:59 | 51.05236 | -1.68188 | 26574 ft | 407 kts | 250° |
| 2026-05-07 19:59 | 51.04028 | -1.72274 | 26997 ft | 407 kts | 236° |
| 2026-05-07 19:59 | 51.02238 | -1.75694 | 27419 ft | 409 kts | 222° |
| 2026-05-07 20:00 | 50.99928 | -1.78342 | 27830 ft | 412 kts | 208° |
| 2026-05-07 20:00 | 50.97244 | -1.80021 | 28225 ft | 416 kts | 195° |
| 2026-05-07 20:00 | 50.94384 | -1.80939 | 28619 ft | 420 kts | 191° |
| 2026-05-07 20:00 | 50.91516 | -1.81656 | 28996 ft | 422 kts | 190° |
| 2026-05-07 20:01 | 50.88605 | -1.82409 | 29368 ft | 425 kts | 191° |
| 2026-05-07 20:01 | 50.85685 | -1.83239 | 29723 ft | 427 kts | 192° |
| 2026-05-07 20:01 | 50.82758 | -1.84129 | 30101 ft | 429 kts | 192° |
| 2026-05-07 20:01 | 50.79827 | -1.85051 | 30419 ft | 431 kts | 193° |
| 2026-05-07 20:02 | 50.76879 | -1.85990 | 30747 ft | 433 kts | 193° |